Denali National Park, Alaska
Current Conditions -  °F | °C
As of 12:36 AM on Thursday 27 Nov 2014 (Local Time) from PAIN Reporting Station
Clear Clear  
Wind Chill: -9°   Ceiling: Unl
Heat Index: -9°   Visibility: 10mi
Dew Point: -11°   Wind: 0mph
Humidity: 92%   Direction: NA
Pressure: 30.31"   Gusts: NA
Location:  63.7326°N, 148.918°W
Report Text: PAIN 270936Z AUTO 00000KT 10SM CLR M23/M24 A3031 RMK AO1
Loading
Personal Weather Stations






























Interactive Weather Map New forecast layout! Learn more

10-Day Weather Forecast

Advertisements
Track Severe Weather on mobile